sensor_id;sensor_type;location;lat;lon;timestamp;P1;durP1;ratioP1;P2;durP2;ratioP2
14754;SDS011;7469;50.906;6.952;2022-12-07T00:01:17;16.57;;;12.13;;
14754;SDS011;7469;50.906;6.952;2022-12-07T00:03:47;20.90;;;13.07;;
14754;SDS011;7469;50.906;6.952;2022-12-07T00:06:16;16.73;;;11.70;;
14754;SDS011;7469;50.906;6.952;2022-12-07T00:08:45;18.37;;;11.80;;
14754;SDS011;7469;50.906;6.952;2022-12-07T00:11:16;16.30;;;11.73;;
14754;SDS011;7469;50.906;6.952;2022-12-07T00:13:45;14.40;;;12.03;;
14754;SDS011;7469;50.906;6.952;2022-12-07T00:16:15;16.07;;;10.97;;
14754;SDS011;7469;50.906;6.952;2022-12-07T00:18:44;19.27;;;11.67;;
14754;SDS011;7469;50.906;6.952;2022-12-07T00:21:13;19.10;;;11.87;;
14754;SDS011;7469;50.906;6.952;2022-12-07T00:23:43;18.47;;;13.17;;
14754;SDS011;7469;50.906;6.952;2022-12-07T00:26:12;17.00;;;12.33;;
14754;SDS011;7469;50.906;6.952;2022-12-07T00:28:44;21.47;;;13.07;;
14754;SDS011;7469;50.906;6.952;2022-12-07T00:31:13;16.37;;;12.10;;
14754;SDS011;7469;50.906;6.952;2022-12-07T00:33:41;16.57;;;12.43;;
14754;SDS011;7469;50.906;6.952;2022-12-07T00:36:10;17.23;;;12.47;;
14754;SDS011;7469;50.906;6.952;2022-12-07T00:38:40;17.20;;;12.83;;
14754;SDS011;7469;50.906;6.952;2022-12-07T00:41:09;20.20;;;14.13;;
14754;SDS011;7469;50.906;6.952;2022-12-07T00:43:40;18.47;;;13.07;;
14754;SDS011;7469;50.906;6.952;2022-12-07T00:46:09;20.20;;;12.67;;
14754;SDS011;7469;50.906;6.952;2022-12-07T00:48:37;19.43;;;13.50;;
14754;SDS011;7469;50.906;6.952;2022-12-07T00:51:05;16.87;;;12.63;;
14754;SDS011;7469;50.906;6.952;2022-12-07T00:53:33;18.83;;;13.23;;
14754;SDS011;7469;50.906;6.952;2022-12-07T00:56:07;19.40;;;12.97;;
14754;SDS011;7469;50.906;6.952;2022-12-07T00:58:36;17.07;;;12.70;;
14754;SDS011;7469;50.906;6.952;2022-12-07T01:01:06;19.83;;;14.33;;
14754;SDS011;7469;50.906;6.952;2022-12-07T01:03:35;20.93;;;13.73;;
14754;SDS011;7469;50.906;6.952;2022-12-07T01:06:04;20.60;;;14.73;;
14754;SDS011;7469;50.906;6.952;2022-12-07T01:08:33;18.73;;;13.83;;
14754;SDS011;7469;50.906;6.952;2022-12-07T01:11:01;18.97;;;13.03;;
14754;SDS011;7469;50.906;6.952;2022-12-07T01:13:31;20.70;;;14.43;;
14754;SDS011;7469;50.906;6.952;2022-12-07T01:16:00;18.00;;;13.07;;
14754;SDS011;7469;50.906;6.952;2022-12-07T01:18:32;19.93;;;13.67;;
14754;SDS011;7469;50.906;6.952;2022-12-07T01:21:03;21.17;;;14.57;;
14754;SDS011;7469;50.906;6.952;2022-12-07T01:23:38;18.57;;;13.60;;
14754;SDS011;7469;50.906;6.952;2022-12-07T01:26:07;21.20;;;13.77;;
14754;SDS011;7469;50.906;6.952;2022-12-07T01:28:37;18.17;;;13.43;;
14754;SDS011;7469;50.906;6.952;2022-12-07T01:31:06;19.80;;;14.07;;
14754;SDS011;7469;50.906;6.952;2022-12-07T01:33:37;22.60;;;13.43;;
14754;SDS011;7469;50.906;6.952;2022-12-07T01:36:07;20.93;;;14.67;;
14754;SDS011;7469;50.906;6.952;2022-12-07T01:38:40;19.50;;;13.47;;
14754;SDS011;7469;50.906;6.952;2022-12-07T01:41:08;20.07;;;14.33;;
14754;SDS011;7469;50.906;6.952;2022-12-07T01:43:36;21.37;;;14.37;;
14754;SDS011;7469;50.906;6.952;2022-12-07T01:46:04;17.50;;;13.17;;
14754;SDS011;7469;50.906;6.952;2022-12-07T01:48:32;18.50;;;13.87;;
14754;SDS011;7469;50.906;6.952;2022-12-07T01:51:07;19.30;;;14.20;;
14754;SDS011;7469;50.906;6.952;2022-12-07T01:53:39;20.83;;;14.03;;
14754;SDS011;7469;50.906;6.952;2022-12-07T01:56:11;19.83;;;13.77;;
14754;SDS011;7469;50.906;6.952;2022-12-07T01:58:44;21.70;;;14.40;;
14754;SDS011;7469;50.906;6.952;2022-12-07T02:01:12;19.83;;;14.97;;
14754;SDS011;7469;50.906;6.952;2022-12-07T02:03:42;19.17;;;13.67;;
14754;SDS011;7469;50.906;6.952;2022-12-07T02:06:14;19.00;;;14.43;;
14754;SDS011;7469;50.906;6.952;2022-12-07T02:08:45;18.17;;;13.93;;
14754;SDS011;7469;50.906;6.952;2022-12-07T02:11:14;19.13;;;13.20;;
14754;SDS011;7469;50.906;6.952;2022-12-07T02:13:43;23.27;;;13.97;;
14754;SDS011;7469;50.906;6.952;2022-12-07T02:16:15;21.87;;;14.80;;
14754;SDS011;7469;50.906;6.952;2022-12-07T02:19:01;22.30;;;15.33;;
14754;SDS011;7469;50.906;6.952;2022-12-07T02:21:49;19.10;;;13.73;;
14754;SDS011;7469;50.906;6.952;2022-12-07T02:24:37;21.60;;;14.43;;
14754;SDS011;7469;50.906;6.952;2022-12-07T02:30:06;19.10;;;13.40;;
14754;SDS011;7469;50.906;6.952;2022-12-07T02:32:43;18.00;;;13.63;;
14754;SDS011;7469;50.906;6.952;2022-12-07T02:35:23;19.03;;;13.93;;
14754;SDS011;7469;50.906;6.952;2022-12-07T02:37:58;17.10;;;13.60;;
14754;SDS011;7469;50.906;6.952;2022-12-07T02:40:31;19.23;;;13.63;;
14754;SDS011;7469;50.906;6.952;2022-12-07T02:43:04;18.90;;;13.40;;
14754;SDS011;7469;50.906;6.952;2022-12-07T02:45:37;20.77;;;13.47;;
14754;SDS011;7469;50.906;6.952;2022-12-07T02:48:08;17.97;;;12.87;;
14754;SDS011;7469;50.906;6.952;2022-12-07T02:50:39;21.60;;;13.50;;
14754;SDS011;7469;50.906;6.952;2022-12-07T02:55:55;17.90;;;14.40;;
14754;SDS011;7469;50.906;6.952;2022-12-07T02:58:28;21.73;;;13.90;;
14754;SDS011;7469;50.906;6.952;2022-12-07T03:01:08;20.70;;;15.30;;
14754;SDS011;7469;50.906;6.952;2022-12-07T03:03:42;23.13;;;13.63;;
14754;SDS011;7469;50.906;6.952;2022-12-07T03:06:16;21.73;;;14.43;;
14754;SDS011;7469;50.906;6.952;2022-12-07T03:08:51;21.37;;;14.87;;
14754;SDS011;7469;50.906;6.952;2022-12-07T03:11:23;22.17;;;14.57;;
14754;SDS011;7469;50.906;6.952;2022-12-07T03:13:59;20.47;;;14.57;;
14754;SDS011;7469;50.906;6.952;2022-12-07T03:16:35;18.57;;;13.63;;
14754;SDS011;7469;50.906;6.952;2022-12-07T03:19:08;19.50;;;14.97;;
14754;SDS011;7469;50.906;6.952;2022-12-07T03:21:40;19.10;;;13.93;;
14754;SDS011;7469;50.906;6.952;2022-12-07T03:24:12;20.17;;;14.33;;
14754;SDS011;7469;50.906;6.952;2022-12-07T03:26:42;22.73;;;14.87;;
14754;SDS011;7469;50.906;6.952;2022-12-07T03:29:17;23.93;;;14.63;;
14754;SDS011;7469;50.906;6.952;2022-12-07T03:31:52;20.43;;;14.27;;
14754;SDS011;7469;50.906;6.952;2022-12-07T03:34:27;23.57;;;14.50;;
14754;SDS011;7469;50.906;6.952;2022-12-07T03:37:00;20.10;;;14.00;;
14754;SDS011;7469;50.906;6.952;2022-12-07T03:39:33;19.27;;;14.63;;
14754;SDS011;7469;50.906;6.952;2022-12-07T03:42:06;21.63;;;14.90;;
14754;SDS011;7469;50.906;6.952;2022-12-07T03:44:36;21.10;;;14.37;;
14754;SDS011;7469;50.906;6.952;2022-12-07T03:47:06;17.93;;;13.93;;
14754;SDS011;7469;50.906;6.952;2022-12-07T03:49:41;23.77;;;14.40;;
14754;SDS011;7469;50.906;6.952;2022-12-07T03:52:16;20.43;;;13.47;;
14754;SDS011;7469;50.906;6.952;2022-12-07T03:54:51;20.97;;;13.77;;
14754;SDS011;7469;50.906;6.952;2022-12-07T03:57:24;20.90;;;14.07;;
14754;SDS011;7469;50.906;6.952;2022-12-07T03:59:53;22.20;;;13.20;;
14754;SDS011;7469;50.906;6.952;2022-12-07T04:02:24;19.67;;;13.67;;
14754;SDS011;7469;50.906;6.952;2022-12-07T04:04:54;19.03;;;13.60;;
14754;SDS011;7469;50.906;6.952;2022-12-07T04:07:22;19.93;;;13.47;;
14754;SDS011;7469;50.906;6.952;2022-12-07T04:09:50;24.37;;;14.37;;
14754;SDS011;7469;50.906;6.952;2022-12-07T04:12:21;22.10;;;13.60;;
14754;SDS011;7469;50.906;6.952;2022-12-07T04:14:49;20.83;;;14.00;;
14754;SDS011;7469;50.906;6.952;2022-12-07T04:17:17;21.87;;;15.43;;
14754;SDS011;7469;50.906;6.952;2022-12-07T04:19:46;21.20;;;14.90;;
14754;SDS011;7469;50.906;6.952;2022-12-07T04:22:14;17.10;;;12.87;;
14754;SDS011;7469;50.906;6.952;2022-12-07T04:24:42;18.60;;;13.80;;
14754;SDS011;7469;50.906;6.952;2022-12-07T04:27:10;20.63;;;13.70;;
14754;SDS011;7469;50.906;6.952;2022-12-07T04:29:38;19.27;;;13.67;;
14754;SDS011;7469;50.906;6.952;2022-12-07T04:32:06;20.47;;;14.27;;
14754;SDS011;7469;50.906;6.952;2022-12-07T04:34:34;18.73;;;12.87;;
14754;SDS011;7469;50.906;6.952;2022-12-07T04:37:03;20.23;;;14.27;;
14754;SDS011;7469;50.906;6.952;2022-12-07T04:39:32;20.03;;;14.90;;
14754;SDS011;7469;50.906;6.952;2022-12-07T04:42:00;18.33;;;13.60;;
14754;SDS011;7469;50.906;6.952;2022-12-07T04:44:29;19.00;;;14.07;;
14754;SDS011;7469;50.906;6.952;2022-12-07T04:46:57;21.03;;;14.13;;
14754;SDS011;7469;50.906;6.952;2022-12-07T04:49:25;19.03;;;13.57;;
14754;SDS011;7469;50.906;6.952;2022-12-07T04:51:53;19.77;;;13.40;;
14754;SDS011;7469;50.906;6.952;2022-12-07T04:54:23;18.90;;;13.70;;
14754;SDS011;7469;50.906;6.952;2022-12-07T04:56:51;22.27;;;14.30;;
14754;SDS011;7469;50.906;6.952;2022-12-07T04:59:20;19.40;;;13.33;;
14754;SDS011;7469;50.906;6.952;2022-12-07T05:01:48;18.40;;;14.00;;
14754;SDS011;7469;50.906;6.952;2022-12-07T05:04:16;17.90;;;13.07;;
14754;SDS011;7469;50.906;6.952;2022-12-07T05:06:44;16.10;;;13.03;;
14754;SDS011;7469;50.906;6.952;2022-12-07T05:09:12;20.33;;;13.77;;
14754;SDS011;7469;50.906;6.952;2022-12-07T05:11:41;21.90;;;14.33;;
14754;SDS011;7469;50.906;6.952;2022-12-07T05:14:11;20.10;;;13.77;;
14754;SDS011;7469;50.906;6.952;2022-12-07T05:16:41;17.97;;;12.73;;
14754;SDS011;7469;50.906;6.952;2022-12-07T05:19:10;18.20;;;13.67;;
14754;SDS011;7469;50.906;6.952;2022-12-07T05:21:39;18.23;;;13.07;;
14754;SDS011;7469;50.906;6.952;2022-12-07T05:24:07;20.73;;;13.37;;
14754;SDS011;7469;50.906;6.952;2022-12-07T05:26:37;20.77;;;14.83;;
14754;SDS011;7469;50.906;6.952;2022-12-07T05:29:06;18.93;;;14.00;;
14754;SDS011;7469;50.906;6.952;2022-12-07T05:31:35;18.93;;;12.90;;
14754;SDS011;7469;50.906;6.952;2022-12-07T05:34:03;17.53;;;14.30;;
14754;SDS011;7469;50.906;6.952;2022-12-07T05:36:30;19.27;;;13.00;;
14754;SDS011;7469;50.906;6.952;2022-12-07T05:38:58;20.73;;;13.67;;
14754;SDS011;7469;50.906;6.952;2022-12-07T05:41:26;19.80;;;13.27;;
14754;SDS011;7469;50.906;6.952;2022-12-07T05:44:16;18.67;;;13.23;;
14754;SDS011;7469;50.906;6.952;2022-12-07T05:46:44;16.77;;;12.83;;
14754;SDS011;7469;50.906;6.952;2022-12-07T05:49:12;21.23;;;14.13;;
14754;SDS011;7469;50.906;6.952;2022-12-07T05:51:40;20.03;;;13.10;;
14754;SDS011;7469;50.906;6.952;2022-12-07T05:54:07;19.77;;;12.93;;
14754;SDS011;7469;50.906;6.952;2022-12-07T05:56:35;23.37;;;13.50;;
14754;SDS011;7469;50.906;6.952;2022-12-07T05:59:03;22.77;;;14.30;;
14754;SDS011;7469;50.906;6.952;2022-12-07T06:01:50;17.33;;;12.70;;
14754;SDS011;7469;50.906;6.952;2022-12-07T06:04:19;19.57;;;14.00;;
14754;SDS011;7469;50.906;6.952;2022-12-07T06:06:47;23.67;;;14.20;;
14754;SDS011;7469;50.906;6.952;2022-12-07T06:09:16;19.13;;;12.70;;
14754;SDS011;7469;50.906;6.952;2022-12-07T06:11:45;18.13;;;12.83;;
14754;SDS011;7469;50.906;6.952;2022-12-07T06:14:31;19.33;;;13.20;;
14754;SDS011;7469;50.906;6.952;2022-12-07T06:17:00;21.80;;;13.27;;
14754;SDS011;7469;50.906;6.952;2022-12-07T06:19:29;19.13;;;13.53;;
14754;SDS011;7469;50.906;6.952;2022-12-07T06:21:57;20.30;;;14.00;;
14754;SDS011;7469;50.906;6.952;2022-12-07T06:24:25;23.40;;;13.63;;
14754;SDS011;7469;50.906;6.952;2022-12-07T06:26:54;19.10;;;13.17;;
14754;SDS011;7469;50.906;6.952;2022-12-07T06:29:22;17.77;;;13.37;;
14754;SDS011;7469;50.906;6.952;2022-12-07T06:31:50;21.00;;;15.77;;
14754;SDS011;7469;50.906;6.952;2022-12-07T06:34:20;24.00;;;14.87;;
14754;SDS011;7469;50.906;6.952;2022-12-07T06:36:49;21.53;;;14.63;;
14754;SDS011;7469;50.906;6.952;2022-12-07T06:39:19;19.93;;;14.57;;
14754;SDS011;7469;50.906;6.952;2022-12-07T06:41:49;20.20;;;14.77;;
14754;SDS011;7469;50.906;6.952;2022-12-07T06:44:18;22.03;;;14.93;;
14754;SDS011;7469;50.906;6.952;2022-12-07T06:46:47;23.63;;;14.80;;
14754;SDS011;7469;50.906;6.952;2022-12-07T06:49:15;21.47;;;15.83;;
14754;SDS011;7469;50.906;6.952;2022-12-07T06:51:44;24.10;;;15.70;;
14754;SDS011;7469;50.906;6.952;2022-12-07T06:54:13;20.83;;;15.17;;
14754;SDS011;7469;50.906;6.952;2022-12-07T06:56:42;23.67;;;16.07;;
14754;SDS011;7469;50.906;6.952;2022-12-07T06:59:10;23.67;;;15.23;;
14754;SDS011;7469;50.906;6.952;2022-12-07T07:01:38;22.63;;;15.87;;
14754;SDS011;7469;50.906;6.952;2022-12-07T07:04:06;27.47;;;15.50;;
14754;SDS011;7469;50.906;6.952;2022-12-07T07:06:34;21.93;;;14.60;;
14754;SDS011;7469;50.906;6.952;2022-12-07T07:09:03;27.30;;;15.33;;
14754;SDS011;7469;50.906;6.952;2022-12-07T07:11:31;22.63;;;15.33;;
14754;SDS011;7469;50.906;6.952;2022-12-07T07:13:59;22.47;;;15.73;;
14754;SDS011;7469;50.906;6.952;2022-12-07T07:16:28;22.97;;;14.83;;
14754;SDS011;7469;50.906;6.952;2022-12-07T07:18:57;21.30;;;15.90;;
14754;SDS011;7469;50.906;6.952;2022-12-07T07:21:25;21.73;;;14.27;;
14754;SDS011;7469;50.906;6.952;2022-12-07T07:23:53;22.03;;;14.87;;
14754;SDS011;7469;50.906;6.952;2022-12-07T07:26:22;25.63;;;15.70;;
14754;SDS011;7469;50.906;6.952;2022-12-07T07:28:50;20.43;;;14.27;;
14754;SDS011;7469;50.906;6.952;2022-12-07T07:31:18;20.10;;;14.47;;
14754;SDS011;7469;50.906;6.952;2022-12-07T07:33:46;20.70;;;14.43;;
14754;SDS011;7469;50.906;6.952;2022-12-07T07:36:14;20.30;;;13.50;;
14754;SDS011;7469;50.906;6.952;2022-12-07T07:38:42;24.60;;;15.40;;
14754;SDS011;7469;50.906;6.952;2022-12-07T07:41:10;22.03;;;14.70;;
14754;SDS011;7469;50.906;6.952;2022-12-07T07:43:39;22.50;;;15.40;;
14754;SDS011;7469;50.906;6.952;2022-12-07T07:46:07;19.83;;;13.80;;
14754;SDS011;7469;50.906;6.952;2022-12-07T07:48:35;22.03;;;15.47;;
14754;SDS011;7469;50.906;6.952;2022-12-07T07:51:04;23.17;;;14.63;;
14754;SDS011;7469;50.906;6.952;2022-12-07T07:53:33;20.23;;;15.47;;
14754;SDS011;7469;50.906;6.952;2022-12-07T07:56:01;19.57;;;14.97;;
14754;SDS011;7469;50.906;6.952;2022-12-07T07:58:29;21.90;;;15.10;;
14754;SDS011;7469;50.906;6.952;2022-12-07T08:01:04;23.67;;;15.20;;
14754;SDS011;7469;50.906;6.952;2022-12-07T08:03:32;19.47;;;14.60;;
14754;SDS011;7469;50.906;6.952;2022-12-07T08:06:01;21.40;;;15.57;;
14754;SDS011;7469;50.906;6.952;2022-12-07T08:08:29;22.07;;;15.83;;
14754;SDS011;7469;50.906;6.952;2022-12-07T08:10:57;21.97;;;15.53;;
14754;SDS011;7469;50.906;6.952;2022-12-07T08:13:27;24.43;;;15.93;;
14754;SDS011;7469;50.906;6.952;2022-12-07T08:15:56;21.50;;;15.13;;
14754;SDS011;7469;50.906;6.952;2022-12-07T08:18:26;22.73;;;14.97;;
14754;SDS011;7469;50.906;6.952;2022-12-07T08:20:58;18.83;;;13.53;;
14754;SDS011;7469;50.906;6.952;2022-12-07T08:23:27;18.77;;;13.30;;
14754;SDS011;7469;50.906;6.952;2022-12-07T08:26:05;22.30;;;12.87;;
14754;SDS011;7469;50.906;6.952;2022-12-07T08:28:34;23.60;;;13.60;;
14754;SDS011;7469;50.906;6.952;2022-12-07T08:31:03;18.53;;;12.63;;
14754;SDS011;7469;50.906;6.952;2022-12-07T08:33:34;22.43;;;12.17;;
14754;SDS011;7469;50.906;6.952;2022-12-07T08:36:03;17.40;;;11.53;;
14754;SDS011;7469;50.906;6.952;2022-12-07T08:38:33;18.93;;;11.10;;
14754;SDS011;7469;50.906;6.952;2022-12-07T08:41:02;16.67;;;10.77;;
14754;SDS011;7469;50.906;6.952;2022-12-07T08:43:31;16.77;;;11.80;;
14754;SDS011;7469;50.906;6.952;2022-12-07T08:46:02;17.27;;;11.40;;
14754;SDS011;7469;50.906;6.952;2022-12-07T08:48:36;17.77;;;12.03;;
14754;SDS011;7469;50.906;6.952;2022-12-07T08:51:07;21.17;;;12.30;;
14754;SDS011;7469;50.906;6.952;2022-12-07T08:53:35;18.03;;;12.07;;
14754;SDS011;7469;50.906;6.952;2022-12-07T08:56:05;19.03;;;12.50;;
14754;SDS011;7469;50.906;6.952;2022-12-07T08:58:34;17.13;;;11.73;;
14754;SDS011;7469;50.906;6.952;2022-12-07T09:01:04;20.23;;;11.43;;
14754;SDS011;7469;50.906;6.952;2022-12-07T09:03:32;15.57;;;11.17;;
14754;SDS011;7469;50.906;6.952;2022-12-07T09:06:02;15.43;;;10.17;;
14754;SDS011;7469;50.906;6.952;2022-12-07T09:08:31;17.17;;;10.37;;
14754;SDS011;7469;50.906;6.952;2022-12-07T09:11:01;16.67;;;9.37;;
14754;SDS011;7469;50.906;6.952;2022-12-07T09:13:30;13.70;;;10.13;;
14754;SDS011;7469;50.906;6.952;2022-12-07T09:15:57;16.63;;;10.50;;
14754;SDS011;7469;50.906;6.952;2022-12-07T09:18:25;16.80;;;10.30;;
14754;SDS011;7469;50.906;6.952;2022-12-07T09:20:53;17.40;;;9.67;;
14754;SDS011;7469;50.906;6.952;2022-12-07T09:23:24;13.57;;;10.20;;
14754;SDS011;7469;50.906;6.952;2022-12-07T09:25:52;18.40;;;10.53;;
14754;SDS011;7469;50.906;6.952;2022-12-07T09:28:20;14.87;;;9.67;;
14754;SDS011;7469;50.906;6.952;2022-12-07T09:30:48;15.37;;;9.50;;
14754;SDS011;7469;50.906;6.952;2022-12-07T09:33:36;13.30;;;9.03;;
14754;SDS011;7469;50.906;6.952;2022-12-07T09:36:04;16.00;;;9.20;;
14754;SDS011;7469;50.906;6.952;2022-12-07T09:38:34;15.13;;;8.50;;
14754;SDS011;7469;50.906;6.952;2022-12-07T09:41:04;11.60;;;8.80;;
14754;SDS011;7469;50.906;6.952;2022-12-07T09:43:33;15.53;;;9.03;;
14754;SDS011;7469;50.906;6.952;2022-12-07T09:46:03;12.40;;;8.30;;
14754;SDS011;7469;50.906;6.952;2022-12-07T09:48:32;18.67;;;9.73;;
14754;SDS011;7469;50.906;6.952;2022-12-07T09:51:02;15.77;;;9.37;;
14754;SDS011;7469;50.906;6.952;2022-12-07T09:53:50;15.33;;;9.53;;
14754;SDS011;7469;50.906;6.952;2022-12-07T09:56:20;16.40;;;9.20;;
14754;SDS011;7469;50.906;6.952;2022-12-07T09:58:49;16.40;;;9.00;;
14754;SDS011;7469;50.906;6.952;2022-12-07T10:01:21;13.93;;;8.50;;
14754;SDS011;7469;50.906;6.952;2022-12-07T10:03:50;16.50;;;8.70;;
14754;SDS011;7469;50.906;6.952;2022-12-07T10:06:19;13.77;;;9.40;;
14754;SDS011;7469;50.906;6.952;2022-12-07T10:08:49;14.57;;;8.53;;
14754;SDS011;7469;50.906;6.952;2022-12-07T10:11:17;14.17;;;9.03;;
14754;SDS011;7469;50.906;6.952;2022-12-07T10:13:46;19.77;;;10.03;;
14754;SDS011;7469;50.906;6.952;2022-12-07T10:16:31;19.93;;;9.07;;
14754;SDS011;7469;50.906;6.952;2022-12-07T10:19:16;15.83;;;9.07;;
14754;SDS011;7469;50.906;6.952;2022-12-07T10:21:59;13.43;;;8.00;;
14754;SDS011;7469;50.906;6.952;2022-12-07T10:24:31;12.27;;;7.80;;
14754;SDS011;7469;50.906;6.952;2022-12-07T10:26:59;12.83;;;8.27;;
14754;SDS011;7469;50.906;6.952;2022-12-07T10:29:28;13.37;;;6.70;;
14754;SDS011;7469;50.906;6.952;2022-12-07T10:31:59;9.00;;;6.97;;
14754;SDS011;7469;50.906;6.952;2022-12-07T10:34:28;10.07;;;6.57;;
14754;SDS011;7469;50.906;6.952;2022-12-07T10:37:15;15.93;;;6.67;;
14754;SDS011;7469;50.906;6.952;2022-12-07T10:39:46;13.63;;;6.80;;
14754;SDS011;7469;50.906;6.952;2022-12-07T10:42:16;10.27;;;6.30;;
14754;SDS011;7469;50.906;6.952;2022-12-07T10:44:46;10.67;;;6.43;;
14754;SDS011;7469;50.906;6.952;2022-12-07T10:47:19;14.30;;;7.53;;
14754;SDS011;7469;50.906;6.952;2022-12-07T10:52:58;11.50;;;6.97;;
14754;SDS011;7469;50.906;6.952;2022-12-07T10:55:46;10.30;;;6.47;;
14754;SDS011;7469;50.906;6.952;2022-12-07T10:58:37;11.17;;;6.67;;
14754;SDS011;7469;50.906;6.952;2022-12-07T11:01:18;10.10;;;6.20;;
14754;SDS011;7469;50.906;6.952;2022-12-07T11:04:03;13.67;;;6.43;;
14754;SDS011;7469;50.906;6.952;2022-12-07T11:06:46;11.13;;;5.97;;
14754;SDS011;7469;50.906;6.952;2022-12-07T11:09:29;10.83;;;5.97;;
14754;SDS011;7469;50.906;6.952;2022-12-07T11:12:41;13.07;;;5.87;;
14754;SDS011;7469;50.906;6.952;2022-12-07T11:15:21;10.37;;;5.77;;
14754;SDS011;7469;50.906;6.952;2022-12-07T11:17:55;10.27;;;5.67;;
14754;SDS011;7469;50.906;6.952;2022-12-07T11:20:34;9.37;;;5.50;;
14754;SDS011;7469;50.906;6.952;2022-12-07T11:23:14;7.83;;;4.80;;
14754;SDS011;7469;50.906;6.952;2022-12-07T11:25:50;9.47;;;5.10;;
14754;SDS011;7469;50.906;6.952;2022-12-07T11:28:33;8.53;;;5.00;;
14754;SDS011;7469;50.906;6.952;2022-12-07T11:31:12;8.43;;;4.20;;
14754;SDS011;7469;50.906;6.952;2022-12-07T11:33:56;10.87;;;4.80;;
14754;SDS011;7469;50.906;6.952;2022-12-07T11:36:33;7.20;;;4.17;;
14754;SDS011;7469;50.906;6.952;2022-12-07T11:39:09;9.93;;;4.37;;
14754;SDS011;7469;50.906;6.952;2022-12-07T11:41:43;9.47;;;4.50;;
14754;SDS011;7469;50.906;6.952;2022-12-07T11:44:19;10.67;;;4.40;;
14754;SDS011;7469;50.906;6.952;2022-12-07T11:46:55;12.30;;;4.77;;
14754;SDS011;7469;50.906;6.952;2022-12-07T11:49:30;7.87;;;4.03;;
14754;SDS011;7469;50.906;6.952;2022-12-07T11:52:11;7.87;;;4.17;;
14754;SDS011;7469;50.906;6.952;2022-12-07T11:54:47;11.37;;;4.47;;
14754;SDS011;7469;50.906;6.952;2022-12-07T11:57:20;6.67;;;3.87;;
14754;SDS011;7469;50.906;6.952;2022-12-07T11:59:59;8.00;;;4.83;;
14754;SDS011;7469;50.906;6.952;2022-12-07T12:02:32;8.60;;;4.63;;
14754;SDS011;7469;50.906;6.952;2022-12-07T12:05:07;10.17;;;4.63;;
14754;SDS011;7469;50.906;6.952;2022-12-07T12:07:43;10.60;;;5.00;;
14754;SDS011;7469;50.906;6.952;2022-12-07T12:10:38;8.77;;;5.60;;
14754;SDS011;7469;50.906;6.952;2022-12-07T12:17:01;12.70;;;5.63;;
14754;SDS011;7469;50.906;6.952;2022-12-07T12:19:57;12.17;;;6.13;;
14754;SDS011;7469;50.906;6.952;2022-12-07T12:22:29;10.73;;;6.03;;
14754;SDS011;7469;50.906;6.952;2022-12-07T12:25:04;14.13;;;6.97;;
14754;SDS011;7469;50.906;6.952;2022-12-07T12:27:35;10.00;;;5.73;;
14754;SDS011;7469;50.906;6.952;2022-12-07T12:30:06;13.30;;;6.63;;
14754;SDS011;7469;50.906;6.952;2022-12-07T12:32:53;8.93;;;6.07;;
14754;SDS011;7469;50.906;6.952;2022-12-07T12:35:31;12.47;;;6.57;;
14754;SDS011;7469;50.906;6.952;2022-12-07T12:41:00;12.50;;;7.17;;
14754;SDS011;7469;50.906;6.952;2022-12-07T12:43:42;11.30;;;6.37;;
14754;SDS011;7469;50.906;6.952;2022-12-07T12:55:22;17.57;;;6.40;;
14754;SDS011;7469;50.906;6.952;2022-12-07T13:10:24;14.17;;;7.20;;
14754;SDS011;7469;50.906;6.952;2022-12-07T13:13:02;13.63;;;6.40;;
14754;SDS011;7469;50.906;6.952;2022-12-07T13:15:51;14.90;;;7.10;;
14754;SDS011;7469;50.906;6.952;2022-12-07T13:18:23;11.83;;;6.73;;
14754;SDS011;7469;50.906;6.952;2022-12-07T13:20:53;12.27;;;6.43;;
14754;SDS011;7469;50.906;6.952;2022-12-07T13:23:23;11.97;;;6.30;;
14754;SDS011;7469;50.906;6.952;2022-12-07T13:26:01;17.40;;;7.27;;
14754;SDS011;7469;50.906;6.952;2022-12-07T13:28:48;13.07;;;6.40;;
14754;SDS011;7469;50.906;6.952;2022-12-07T13:31:31;14.60;;;6.80;;
14754;SDS011;7469;50.906;6.952;2022-12-07T13:34:02;12.07;;;6.43;;
14754;SDS011;7469;50.906;6.952;2022-12-07T13:36:33;10.73;;;6.70;;
14754;SDS011;7469;50.906;6.952;2022-12-07T13:39:11;11.97;;;6.13;;
14754;SDS011;7469;50.906;6.952;2022-12-07T13:41:50;12.27;;;6.17;;
14754;SDS011;7469;50.906;6.952;2022-12-07T13:44:19;10.83;;;6.50;;
14754;SDS011;7469;50.906;6.952;2022-12-07T13:46:56;11.73;;;5.73;;
14754;SDS011;7469;50.906;6.952;2022-12-07T13:49:29;10.50;;;5.97;;
14754;SDS011;7469;50.906;6.952;2022-12-07T13:52:15;10.73;;;5.50;;
14754;SDS011;7469;50.906;6.952;2022-12-07T13:54:45;10.67;;;5.43;;
14754;SDS011;7469;50.906;6.952;2022-12-07T13:57:16;10.43;;;5.03;;
14754;SDS011;7469;50.906;6.952;2022-12-07T13:59:44;12.20;;;5.63;;
14754;SDS011;7469;50.906;6.952;2022-12-07T14:02:19;11.97;;;5.97;;
14754;SDS011;7469;50.906;6.952;2022-12-07T14:05:06;9.70;;;5.73;;
14754;SDS011;7469;50.906;6.952;2022-12-07T14:07:47;8.73;;;5.10;;
14754;SDS011;7469;50.906;6.952;2022-12-07T14:10:23;12.93;;;6.00;;
14754;SDS011;7469;50.906;6.952;2022-12-07T14:12:54;11.23;;;5.37;;
14754;SDS011;7469;50.906;6.952;2022-12-07T14:15:24;8.20;;;5.27;;
14754;SDS011;7469;50.906;6.952;2022-12-07T14:17:55;13.80;;;5.93;;
14754;SDS011;7469;50.906;6.952;2022-12-07T14:20:31;10.93;;;5.77;;
14754;SDS011;7469;50.906;6.952;2022-12-07T14:23:00;11.10;;;5.43;;
14754;SDS011;7469;50.906;6.952;2022-12-07T14:25:44;9.87;;;6.17;;
14754;SDS011;7469;50.906;6.952;2022-12-07T14:28:27;7.47;;;5.43;;
14754;SDS011;7469;50.906;6.952;2022-12-07T14:30:56;12.83;;;5.60;;
14754;SDS011;7469;50.906;6.952;2022-12-07T14:33:25;10.80;;;5.87;;
14754;SDS011;7469;50.906;6.952;2022-12-07T14:35:54;9.27;;;6.10;;
14754;SDS011;7469;50.906;6.952;2022-12-07T14:38:24;11.47;;;6.53;;
14754;SDS011;7469;50.906;6.952;2022-12-07T14:40:53;10.77;;;6.30;;
14754;SDS011;7469;50.906;6.952;2022-12-07T14:43:43;9.20;;;6.13;;
14754;SDS011;7469;50.906;6.952;2022-12-07T14:46:31;10.63;;;5.67;;
14754;SDS011;7469;50.906;6.952;2022-12-07T14:48:59;13.13;;;6.93;;
14754;SDS011;7469;50.906;6.952;2022-12-07T14:51:47;8.37;;;5.63;;
14754;SDS011;7469;50.906;6.952;2022-12-07T14:54:35;12.97;;;6.23;;
14754;SDS011;7469;50.906;6.952;2022-12-07T14:57:03;12.70;;;6.50;;
14754;SDS011;7469;50.906;6.952;2022-12-07T14:59:32;10.30;;;6.30;;
14754;SDS011;7469;50.906;6.952;2022-12-07T15:02:06;12.53;;;6.57;;
14754;SDS011;7469;50.906;6.952;2022-12-07T15:04:34;11.17;;;6.33;;
14754;SDS011;7469;50.906;6.952;2022-12-07T15:07:03;13.13;;;6.30;;
14754;SDS011;7469;50.906;6.952;2022-12-07T15:09:36;14.97;;;6.00;;
14754;SDS011;7469;50.906;6.952;2022-12-07T15:12:04;8.33;;;6.17;;
14754;SDS011;7469;50.906;6.952;2022-12-07T15:14:34;10.67;;;6.40;;
14754;SDS011;7469;50.906;6.952;2022-12-07T15:17:01;11.73;;;6.80;;
14754;SDS011;7469;50.906;6.952;2022-12-07T15:19:36;16.20;;;6.67;;
14754;SDS011;7469;50.906;6.952;2022-12-07T15:22:04;9.77;;;6.23;;
14754;SDS011;7469;50.906;6.952;2022-12-07T15:24:33;9.40;;;6.43;;
14754;SDS011;7469;50.906;6.952;2022-12-07T15:27:01;9.03;;;6.37;;
14754;SDS011;7469;50.906;6.952;2022-12-07T15:29:29;7.40;;;6.17;;
14754;SDS011;7469;50.906;6.952;2022-12-07T15:31:59;10.13;;;6.60;;
14754;SDS011;7469;50.906;6.952;2022-12-07T15:34:27;10.73;;;6.00;;
14754;SDS011;7469;50.906;6.952;2022-12-07T15:37:05;9.63;;;6.37;;
14754;SDS011;7469;50.906;6.952;2022-12-07T15:39:33;8.70;;;6.07;;
14754;SDS011;7469;50.906;6.952;2022-12-07T15:42:03;13.70;;;6.83;;
14754;SDS011;7469;50.906;6.952;2022-12-07T15:44:31;10.13;;;6.73;;
14754;SDS011;7469;50.906;6.952;2022-12-07T15:47:18;8.53;;;6.20;;